LFPM 262030Z AUTO 18011KT 9999 ////// 07/06 Q1016

Sorties Club
belle sortie vers AMBOISE et chateau de CHAMBORD le 20/05/2017

Remerciements a Kevin et Valentin pour l'organisation de cette sortie et aux instructeurs pour l'encadrement



Chateau CHAMBORD photo Repas Amboise photo Amboise au sol photo
Chenonceau photo Patrouille photo Vu du ciel photo